createdAt,value
2018-09-29T00:00:17.569Z,0.00
2018-09-29T00:01:17.564Z,0.00
2018-09-29T00:02:17.557Z,0.00
2018-09-29T00:03:17.577Z,0.00
2018-09-29T00:04:17.545Z,0.00
2018-09-29T00:05:17.560Z,0.00
2018-09-29T00:06:17.531Z,0.00
2018-09-29T00:07:17.524Z,0.00
2018-09-29T00:08:17.518Z,0.00
2018-09-29T00:09:17.511Z,0.00
2018-09-29T00:10:17.565Z,0.00
2018-09-29T00:11:17.498Z,0.00
2018-09-29T00:12:17.492Z,0.00
2018-09-29T00:13:17.486Z,0.00
2018-09-29T00:14:17.478Z,0.00
2018-09-29T00:15:17.472Z,0.00
2018-09-29T00:16:17.466Z,0.00
2018-09-29T00:17:17.460Z,0.00
2018-09-29T00:18:17.452Z,0.00
2018-09-29T00:19:17.446Z,0.00
2018-09-29T00:20:17.440Z,0.00
2018-09-29T00:21:17.435Z,0.00
2018-09-29T00:22:17.427Z,0.00
2018-09-29T00:23:17.420Z,0.00
2018-09-29T00:24:17.415Z,0.00
2018-09-29T00:25:17.408Z,0.00
2018-09-29T00:26:17.400Z,0.00
2018-09-29T00:27:17.396Z,0.00
2018-09-29T00:28:17.389Z,0.00
2018-09-29T00:29:17.381Z,0.00
2018-09-29T00:30:17.376Z,0.00
2018-09-29T00:31:17.368Z,0.00
2018-09-29T00:32:17.362Z,0.00
2018-09-29T00:33:17.357Z,0.00
2018-09-29T00:34:17.348Z,0.00
2018-09-29T00:35:17.345Z,0.00
2018-09-29T00:36:17.335Z,0.00
2018-09-29T00:37:17.329Z,0.00
2018-09-29T00:38:17.323Z,0.00
2018-09-29T00:39:17.316Z,0.00
2018-09-29T00:40:17.310Z,0.00
2018-09-29T00:41:17.304Z,0.00
2018-09-29T00:42:17.295Z,0.00
2018-09-29T00:43:17.289Z,0.00
2018-09-29T00:44:17.287Z,0.00
2018-09-29T00:45:17.277Z,0.00
2018-09-29T00:46:17.270Z,0.00
2018-09-29T00:47:17.264Z,0.00
2018-09-29T00:48:17.258Z,0.00
2018-09-29T00:49:17.249Z,0.00
2018-09-29T00:50:17.244Z,0.00
2018-09-29T00:51:17.237Z,0.00
2018-09-29T00:52:17.230Z,0.00
2018-09-29T00:53:17.223Z,0.00
2018-09-29T00:54:17.216Z,0.00
2018-09-29T00:55:17.211Z,0.00
2018-09-29T00:56:17.204Z,0.00
2018-09-29T00:57:17.197Z,0.00
2018-09-29T00:58:17.190Z,0.00
2018-09-29T00:59:17.182Z,0.00
2018-09-29T01:00:17.177Z,0.00
2018-09-29T01:01:17.170Z,0.00
2018-09-29T01:02:17.165Z,0.00
2018-09-29T01:03:17.161Z,0.00
2018-09-29T01:04:17.159Z,0.00
2018-09-29T01:05:17.143Z,0.00
2018-09-29T01:06:17.137Z,0.00
2018-09-29T01:07:17.130Z,0.00
2018-09-29T01:08:17.124Z,0.00
2018-09-29T01:09:17.123Z,0.00
2018-09-29T01:10:17.109Z,0.00
2018-09-29T01:11:17.102Z,0.00
2018-09-29T01:12:17.096Z,0.00
2018-09-29T01:13:17.089Z,0.00
2018-09-29T01:14:17.084Z,0.00
2018-09-29T01:15:17.075Z,0.00
2018-09-29T01:16:17.070Z,0.00
2018-09-29T01:17:17.062Z,0.00
2018-09-29T01:18:17.055Z,0.00
2018-09-29T01:19:17.049Z,0.00
2018-09-29T01:20:17.041Z,0.00
2018-09-29T01:21:17.035Z,0.00
2018-09-29T01:22:17.028Z,0.00
2018-09-29T01:23:17.021Z,0.00
2018-09-29T01:24:17.014Z,0.00
2018-09-29T01:25:17.010Z,0.00
2018-09-29T01:26:17.001Z,0.00
2018-09-29T01:27:16.994Z,0.00
2018-09-29T01:28:16.988Z,0.00
2018-09-29T01:29:16.983Z,0.00
2018-09-29T01:30:16.974Z,0.00
2018-09-29T01:31:16.969Z,0.00
2018-09-29T01:32:16.960Z,0.00
2018-09-29T01:33:16.955Z,0.00
2018-09-29T01:34:16.947Z,0.00
2018-09-29T01:35:16.941Z,0.00
2018-09-29T01:36:16.936Z,0.00
2018-09-29T01:37:16.928Z,0.00
2018-09-29T01:38:16.920Z,0.00
2018-09-29T01:39:16.913Z,0.00
2018-09-29T01:40:16.907Z,0.00
2018-09-29T01:41:16.901Z,0.00
2018-09-29T01:42:16.898Z,0.00
2018-09-29T01:43:16.886Z,0.00
2018-09-29T01:44:16.879Z,0.00
2018-09-29T01:45:16.872Z,0.00
2018-09-29T01:46:16.866Z,0.00
2018-09-29T01:47:16.862Z,0.00
2018-09-29T01:48:16.853Z,0.00
2018-09-29T01:49:16.846Z,0.00
2018-09-29T01:50:16.838Z,0.00
2018-09-29T01:51:16.832Z,0.00
2018-09-29T01:52:16.824Z,0.00
2018-09-29T01:53:16.820Z,0.00
2018-09-29T01:54:16.810Z,0.00
2018-09-29T01:55:16.805Z,0.00
2018-09-29T01:56:16.797Z,0.00
2018-09-29T01:57:16.792Z,0.00
2018-09-29T01:58:16.785Z,0.00
2018-09-29T01:59:16.776Z,0.00
2018-09-29T02:00:16.773Z,0.00
2018-09-29T02:01:16.764Z,0.00
2018-09-29T02:02:16.757Z,0.00
2018-09-29T02:03:16.751Z,0.00
2018-09-29T02:04:16.744Z,0.00
2018-09-29T02:05:16.740Z,0.00
2018-09-29T02:06:16.729Z,0.00
2018-09-29T02:07:16.723Z,0.00
2018-09-29T02:08:16.716Z,0.00
2018-09-29T02:09:16.710Z,0.00
2018-09-29T02:10:16.701Z,0.00
2018-09-29T02:11:16.697Z,0.00
2018-09-29T02:12:16.691Z,0.00
2018-09-29T02:13:16.683Z,0.00
2018-09-29T02:14:16.674Z,0.00
2018-09-29T02:15:16.674Z,0.00
2018-09-29T02:16:16.661Z,0.00
2018-09-29T02:17:16.654Z,0.00
2018-09-29T02:18:16.648Z,0.00
2018-09-29T02:19:16.641Z,0.00
2018-09-29T02:20:16.634Z,0.00
2018-09-29T02:21:16.628Z,0.00
2018-09-29T02:22:16.619Z,0.00
2018-09-29T02:23:16.615Z,0.00
2018-09-29T02:24:16.608Z,0.00
2018-09-29T02:25:16.600Z,0.00
2018-09-29T02:26:16.595Z,0.00
2018-09-29T02:27:16.586Z,0.00
2018-09-29T02:28:16.580Z,0.00
2018-09-29T02:29:16.573Z,0.00
2018-09-29T02:30:16.566Z,0.00
2018-09-29T02:31:16.564Z,0.00
2018-09-29T02:32:16.553Z,0.00
2018-09-29T02:33:16.546Z,0.00
2018-09-29T02:34:16.538Z,0.00
2018-09-29T02:35:16.532Z,0.00
2018-09-29T02:36:16.526Z,0.00
2018-09-29T02:37:16.519Z,0.00
2018-09-29T02:38:16.512Z,0.00
2018-09-29T02:39:16.506Z,0.00
2018-09-29T02:40:16.498Z,0.00
2018-09-29T02:41:16.493Z,0.00
2018-09-29T02:42:16.485Z,0.00
2018-09-29T02:43:16.478Z,0.00
2018-09-29T02:44:16.471Z,0.00
2018-09-29T02:45:16.464Z,0.00
2018-09-29T02:46:16.457Z,0.00
2018-09-29T02:47:16.451Z,0.00
2018-09-29T02:48:16.443Z,0.00
2018-09-29T02:49:16.437Z,0.00
2018-09-29T02:50:16.429Z,0.00
2018-09-29T02:51:16.425Z,0.00
2018-09-29T02:52:16.416Z,0.00
2018-09-29T02:53:16.414Z,0.00
2018-09-29T02:54:16.402Z,0.00
2018-09-29T02:55:16.395Z,0.00
2018-09-29T02:56:16.388Z,0.00
2018-09-29T02:57:16.382Z,0.00
2018-09-29T02:58:16.374Z,0.00
2018-09-29T02:59:16.367Z,0.00
2018-09-29T03:00:16.364Z,0.00
2018-09-29T03:01:16.354Z,0.00
2018-09-29T03:02:16.346Z,0.00
2018-09-29T03:03:16.340Z,0.00
2018-09-29T03:04:16.333Z,0.00
2018-09-29T03:05:16.330Z,0.00
2018-09-29T03:06:16.322Z,0.00
2018-09-29T03:07:16.366Z,0.00
2018-09-29T03:08:16.304Z,0.00
2018-09-29T03:09:16.300Z,0.00
2018-09-29T03:10:16.291Z,0.00
2018-09-29T03:11:16.285Z,0.00
2018-09-29T03:12:16.280Z,0.00
2018-09-29T03:13:16.271Z,0.00
2018-09-29T03:14:16.265Z,0.00
2018-09-29T03:15:16.257Z,0.00
2018-09-29T03:16:16.251Z,0.00
2018-09-29T03:17:16.243Z,0.00
2018-09-29T03:18:16.236Z,0.00
2018-09-29T03:19:16.322Z,0.00
2018-09-29T03:20:16.221Z,0.00
2018-09-29T03:21:16.215Z,0.00
2018-09-29T03:22:16.207Z,0.00
2018-09-29T03:23:16.233Z,0.00
2018-09-29T03:24:16.200Z,0.00
2018-09-29T03:25:16.187Z,0.00
2018-09-29T03:26:16.180Z,0.00
2018-09-29T03:27:16.173Z,0.00
2018-09-29T03:28:16.171Z,0.00
2018-09-29T03:29:16.160Z,0.00
2018-09-29T03:30:16.151Z,0.00
2018-09-29T03:31:16.145Z,0.00
2018-09-29T03:32:16.141Z,0.00
2018-09-29T03:33:16.131Z,0.00
2018-09-29T03:34:16.124Z,0.00
2018-09-29T03:35:16.118Z,0.00
2018-09-29T03:36:16.109Z,0.00
2018-09-29T03:37:16.111Z,0.00
2018-09-29T03:38:16.095Z,0.00
2018-09-29T03:39:16.091Z,0.00
2018-09-29T03:40:16.082Z,0.00
2018-09-29T03:41:16.074Z,0.00
2018-09-29T03:42:16.066Z,0.00
2018-09-29T03:43:16.060Z,0.00
2018-09-29T03:44:16.057Z,0.00
2018-09-29T03:45:16.046Z,0.00
2018-09-29T03:46:16.039Z,0.00
2018-09-29T03:47:16.033Z,0.00
2018-09-29T03:48:16.025Z,0.00
2018-09-29T03:49:16.018Z,0.00
2018-09-29T03:50:16.009Z,0.00
2018-09-29T03:51:16.003Z,0.00
2018-09-29T03:52:15.999Z,0.00
2018-09-29T03:53:15.993Z,0.00
2018-09-29T03:54:15.982Z,0.00
2018-09-29T03:55:15.975Z,0.00
2018-09-29T03:56:15.968Z,0.00
2018-09-29T03:57:15.969Z,0.00
2018-09-29T03:58:15.954Z,0.00
2018-09-29T03:59:15.948Z,0.00
2018-09-29T04:00:15.940Z,0.00
2018-09-29T04:01:15.935Z,0.00
2018-09-29T04:02:15.928Z,0.00
2018-09-29T04:03:15.922Z,0.00
2018-09-29T04:04:15.914Z,0.00
2018-09-29T04:05:15.906Z,0.00
2018-09-29T04:06:15.898Z,0.00
2018-09-29T04:07:15.890Z,0.00
2018-09-29T04:08:15.883Z,0.00
2018-09-29T04:09:15.877Z,0.00
2018-09-29T04:10:15.870Z,0.00
2018-09-29T04:11:15.865Z,0.00
2018-09-29T04:12:15.855Z,0.00
2018-09-29T04:13:15.848Z,0.00
2018-09-29T04:14:15.841Z,0.00
2018-09-29T04:15:15.834Z,0.00
2018-09-29T04:16:15.826Z,0.00
2018-09-29T04:17:15.819Z,0.00
2018-09-29T04:18:15.812Z,0.00
2018-09-29T04:19:15.806Z,0.00
2018-09-29T04:20:15.798Z,0.00
2018-09-29T04:21:15.791Z,0.00
2018-09-29T04:22:15.782Z,0.00
2018-09-29T04:23:15.777Z,0.00
2018-09-29T04:24:15.768Z,0.00
2018-09-29T04:25:15.763Z,0.00
2018-09-29T04:26:15.754Z,0.00
2018-09-29T04:27:15.746Z,0.00
2018-09-29T04:28:15.740Z,0.00
2018-09-29T04:29:15.733Z,0.00
2018-09-29T04:30:15.725Z,0.00
2018-09-29T04:31:15.719Z,0.00
2018-09-29T04:32:15.710Z,0.00
2018-09-29T04:33:15.704Z,0.00
2018-09-29T04:34:15.695Z,0.00
2018-09-29T04:35:15.690Z,0.00
2018-09-29T04:36:15.683Z,0.00
2018-09-29T04:37:15.675Z,0.00
2018-09-29T04:38:15.666Z,0.00
2018-09-29T04:39:15.661Z,0.00
2018-09-29T04:40:15.654Z,0.00
2018-09-29T04:41:15.645Z,0.00
2018-09-29T04:42:15.638Z,0.00
2018-09-29T04:43:15.690Z,0.00
2018-09-29T04:44:15.625Z,0.00
2018-09-29T04:45:15.618Z,0.00
2018-09-29T04:46:15.609Z,0.00
2018-09-29T04:47:15.601Z,0.00
2018-09-29T04:48:15.595Z,0.00
2018-09-29T04:49:15.665Z,0.00
2018-09-29T04:50:15.581Z,0.00
2018-09-29T04:51:15.574Z,0.00
2018-09-29T04:52:15.566Z,0.00
2018-09-29T04:53:15.660Z,0.00
2018-09-29T04:54:15.550Z,0.00
2018-09-29T04:55:15.543Z,4.00
2018-09-29T04:56:15.536Z,4.00
2018-09-29T04:57:15.530Z,0.00
2018-09-29T04:58:15.521Z,4.00
2018-09-29T04:59:15.514Z,4.00
2018-09-29T05:00:15.508Z,4.00
2018-09-29T05:01:15.502Z,4.00
2018-09-29T05:02:15.493Z,8.00
2018-09-29T05:03:15.485Z,8.00
2018-09-29T05:04:15.478Z,8.00
2018-09-29T05:05:15.470Z,12.00
2018-09-29T05:06:15.463Z,12.00
2018-09-29T05:07:15.458Z,16.00
2018-09-29T05:08:15.450Z,16.00
2018-09-29T05:09:15.441Z,20.00
2018-09-29T05:10:15.435Z,24.00
2018-09-29T05:11:15.427Z,24.00
2018-09-29T05:12:15.421Z,28.00
2018-09-29T05:13:15.413Z,36.00
2018-09-29T05:14:15.405Z,40.00
2018-09-29T05:15:15.397Z,48.00
2018-09-29T05:16:15.391Z,56.00
2018-09-29T05:17:15.384Z,64.00
2018-09-29T05:18:15.379Z,76.00
2018-09-29T05:19:15.367Z,88.00
2018-09-29T05:20:15.360Z,100.00
2018-09-29T05:21:15.354Z,108.00
2018-09-29T05:22:15.346Z,120.00
2018-09-29T05:23:15.365Z,132.00
2018-09-29T05:24:15.333Z,144.00
2018-09-29T05:25:15.323Z,152.00
2018-09-29T05:26:15.316Z,164.00
2018-09-29T05:27:15.311Z,180.00
2018-09-29T05:28:15.304Z,196.00
2018-09-29T05:29:15.294Z,216.00
2018-09-29T05:30:15.286Z,240.00
2018-09-29T05:31:15.281Z,260.00
2018-09-29T05:32:15.272Z,284.00
2018-09-29T05:33:15.265Z,312.00
2018-09-29T05:34:15.256Z,336.00
2018-09-29T05:35:15.251Z,360.00
2018-09-29T05:36:15.248Z,392.00
2018-09-29T05:37:15.237Z,424.00
2018-09-29T05:38:15.241Z,452.00
2018-09-29T05:39:15.221Z,484.00
2018-09-29T05:40:15.215Z,516.00
2018-09-29T05:41:15.207Z,548.00
2018-09-29T05:42:15.199Z,580.00
2018-09-29T05:43:15.192Z,616.00
2018-09-29T05:44:15.184Z,652.00
2018-09-29T05:45:15.177Z,688.00
2018-09-29T05:46:15.170Z,720.00
2018-09-29T05:47:15.163Z,756.00
2018-09-29T05:48:15.203Z,792.00
2018-09-29T05:49:15.148Z,824.00
2018-09-29T05:50:15.140Z,860.00
2018-09-29T05:51:15.132Z,896.00
2018-09-29T05:52:15.125Z,932.00
2018-09-29T05:53:15.118Z,968.00
2018-09-29T05:54:15.110Z,1008.00
2018-09-29T05:55:15.103Z,1044.00
2018-09-29T05:56:15.100Z,1084.00
2018-09-29T05:57:15.089Z,1124.00
2018-09-29T05:58:15.081Z,1156.00
2018-09-29T05:59:15.073Z,1188.00
2018-09-29T06:00:15.127Z,1220.00
2018-09-29T06:01:15.059Z,1248.00
2018-09-29T06:02:15.051Z,1284.00
2018-09-29T06:03:15.044Z,1312.00
2018-09-29T06:04:15.037Z,1340.00
2018-09-29T06:05:15.045Z,1364.00
2018-09-29T06:06:15.023Z,1388.00
2018-09-29T06:07:15.067Z,1408.00
2018-09-29T06:08:15.009Z,1444.00
2018-09-29T06:09:15.001Z,1480.00
2018-09-29T06:10:14.992Z,1508.00
2018-09-29T06:11:14.986Z,1540.00
2018-09-29T06:12:14.978Z,1564.00
2018-09-29T06:13:15.012Z,1592.00
2018-09-29T06:14:14.963Z,1620.00
2018-09-29T06:15:14.956Z,1652.00
2018-09-29T06:16:14.949Z,1684.00
2018-09-29T06:17:14.943Z,1712.00
2018-09-29T06:18:14.933Z,1748.00
2018-09-29T06:19:14.930Z,1780.00
2018-09-29T06:20:14.920Z,1812.00
2018-09-29T06:21:14.914Z,1848.00
2018-09-29T06:22:14.905Z,1884.00
2018-09-29T06:23:14.902Z,1916.00
2018-09-29T06:24:14.891Z,1936.00
2018-09-29T06:25:14.886Z,1952.00
2018-09-29T06:26:14.876Z,1968.00
2018-09-29T06:27:14.870Z,1976.00
2018-09-29T06:28:14.862Z,2004.00
2018-09-29T06:29:14.855Z,2036.00
2018-09-29T06:30:14.848Z,2060.00
2018-09-29T06:31:14.841Z,2088.00
2018-09-29T06:32:14.835Z,2108.00
2018-09-29T06:33:14.828Z,2128.00
2018-09-29T06:34:14.882Z,2148.00
2018-09-29T06:35:14.814Z,2172.00
2018-09-29T06:36:14.808Z,2188.00
2018-09-29T06:37:14.802Z,2212.00
2018-09-29T06:38:14.811Z,2232.00
2018-09-29T06:39:14.786Z,2248.00
2018-09-29T06:40:14.780Z,2268.00
2018-09-29T06:41:14.773Z,2292.00
2018-09-29T06:42:14.766Z,2324.00
2018-09-29T06:43:14.759Z,2336.00
2018-09-29T06:44:14.751Z,2340.00
2018-09-29T06:45:14.747Z,2364.00
2018-09-29T06:46:14.739Z,2368.00
2018-09-29T06:47:14.732Z,2400.00
2018-09-29T06:48:14.787Z,2428.00
2018-09-29T06:49:14.719Z,2448.00
2018-09-29T06:50:14.712Z,2476.00
2018-09-29T06:51:14.705Z,2496.00
2018-09-29T06:52:14.699Z,2516.00
2018-09-29T06:53:14.693Z,2520.00
2018-09-29T06:54:14.685Z,2532.00
2018-09-29T06:55:14.681Z,2568.00
2018-09-29T06:56:14.672Z,2608.00
2018-09-29T06:57:14.665Z,2636.00
2018-09-29T06:58:14.660Z,2652.00
2018-09-29T06:59:14.653Z,2716.00
2018-09-29T07:00:14.647Z,2792.00
2018-09-29T07:01:14.642Z,2844.00
2018-09-29T07:02:14.632Z,2864.00
2018-09-29T07:03:14.626Z,2868.00
2018-09-29T07:04:14.620Z,2872.00
2018-09-29T07:05:14.612Z,2864.00
2018-09-29T07:06:14.607Z,2848.00
2018-09-29T07:07:14.600Z,2864.00
2018-09-29T07:08:14.592Z,2876.00
2018-09-29T07:09:14.587Z,2880.00
2018-09-29T07:10:14.579Z,2892.00
2018-09-29T07:11:14.574Z,2908.00
2018-09-29T07:12:14.567Z,2868.00
2018-09-29T07:13:14.560Z,2840.00
2018-09-29T07:14:14.552Z,2896.00
2018-09-29T07:15:14.548Z,2952.00
2018-09-29T07:16:14.541Z,3000.00
2018-09-29T07:17:14.537Z,3048.00
2018-09-29T07:18:14.529Z,3084.00
2018-09-29T07:19:14.522Z,3116.00
2018-09-29T07:20:14.517Z,3128.00
2018-09-29T07:21:14.519Z,3176.00
2018-09-29T07:22:14.504Z,3268.00
2018-09-29T07:23:14.497Z,3312.00
2018-09-29T07:24:14.493Z,3364.00
2018-09-29T07:25:14.531Z,3408.00
2018-09-29T07:26:14.480Z,3452.00
2018-09-29T07:27:14.474Z,3496.00
2018-09-29T07:28:14.468Z,3536.00
2018-09-29T07:29:14.463Z,3540.00
2018-09-29T07:30:14.456Z,3516.00
2018-09-29T07:31:14.505Z,3504.00
2018-09-29T07:32:14.444Z,3500.00
2018-09-29T07:33:14.437Z,3532.00
2018-09-29T07:34:14.430Z,3536.00
2018-09-29T07:35:14.425Z,3480.00
2018-09-29T07:36:14.422Z,3548.00
2018-09-29T07:37:14.413Z,3580.00
2018-09-29T07:38:14.411Z,3584.00
2018-09-29T07:39:14.403Z,3568.00
2018-09-29T07:40:14.397Z,3528.00
2018-09-29T07:41:14.390Z,3504.00
2018-09-29T07:42:14.385Z,3456.00
2018-09-29T07:43:14.382Z,3408.00
2018-09-29T07:44:14.374Z,3312.00
2018-09-29T07:45:14.367Z,3316.00
2018-09-29T07:46:14.361Z,3456.00
2018-09-29T07:47:14.355Z,3548.00
2018-09-29T07:48:14.351Z,3552.00
2018-09-29T07:49:14.428Z,3576.00
2018-09-29T07:50:14.339Z,3628.00
2018-09-29T07:51:14.333Z,3640.00
2018-09-29T07:52:14.328Z,3632.00
2018-09-29T07:53:14.322Z,3648.00
2018-09-29T07:54:14.319Z,3732.00
2018-09-29T07:55:14.312Z,3784.00
2018-09-29T07:56:14.317Z,3828.00
2018-09-29T07:57:14.301Z,3852.00
2018-09-29T07:58:14.294Z,3860.00
2018-09-29T07:59:14.288Z,3836.00
2018-09-29T08:00:14.284Z,3780.00
2018-09-29T08:01:14.278Z,3788.00
2018-09-29T08:02:14.272Z,3832.00
2018-09-29T08:03:14.267Z,3932.00
2018-09-29T08:04:14.260Z,3984.00
2018-09-29T08:05:14.257Z,3948.00
2018-09-29T08:06:14.288Z,4000.00
2018-09-29T08:07:14.244Z,4060.00
2018-09-29T08:08:14.239Z,4136.00
2018-09-29T08:09:14.233Z,4248.00
2018-09-29T08:10:14.227Z,4288.00
2018-09-29T08:11:14.222Z,4344.00
2018-09-29T08:12:14.286Z,4404.00
2018-09-29T08:13:14.213Z,4384.00
2018-09-29T08:14:14.207Z,4468.00
2018-09-29T08:15:14.202Z,4676.00
2018-09-29T08:16:14.197Z,4796.00
2018-09-29T08:17:14.191Z,4900.00
2018-09-29T08:18:14.192Z,4980.00
2018-09-29T08:19:14.180Z,5044.00
2018-09-29T08:20:14.176Z,5080.00
2018-09-29T08:21:14.172Z,5096.00
2018-09-29T08:22:14.164Z,5104.00
2018-09-29T08:23:14.164Z,5128.00
2018-09-29T08:24:14.173Z,5160.00
2018-09-29T08:25:14.150Z,5148.00
2018-09-29T08:26:14.146Z,5068.00
2018-09-29T08:27:14.144Z,4960.00
2018-09-29T08:28:14.136Z,4748.00
2018-09-29T08:29:14.131Z,4732.00
2018-09-29T08:30:14.125Z,4800.00
2018-09-29T08:31:14.120Z,4812.00
2018-09-29T08:32:14.157Z,4968.00
2018-09-29T08:33:14.113Z,5024.00
2018-09-29T08:34:14.107Z,4968.00
2018-09-29T08:35:14.104Z,5128.00
2018-09-29T08:36:14.101Z,5044.00
2018-09-29T08:37:14.093Z,5036.00
2018-09-29T08:38:14.090Z,4992.00
2018-09-29T08:39:14.087Z,5192.00
2018-09-29T08:40:14.080Z,5308.00
2018-09-29T08:41:14.078Z,5332.00
2018-09-29T08:42:14.071Z,5332.00
2018-09-29T08:43:14.067Z,5356.00
2018-09-29T08:44:14.079Z,5376.00
2018-09-29T08:45:14.060Z,5468.00
2018-09-29T08:46:14.059Z,5520.00
2018-09-29T08:47:14.052Z,5432.00
2018-09-29T08:48:14.046Z,5308.00
2018-09-29T08:49:14.044Z,5356.00
2018-09-29T08:50:14.038Z,5500.00
2018-09-29T08:51:14.034Z,5592.00
2018-09-29T08:52:14.029Z,5640.00
2018-09-29T08:53:14.043Z,5632.00
2018-09-29T08:54:14.023Z,5680.00
2018-09-29T08:55:14.018Z,5868.00
2018-09-29T08:56:16.968Z,6088.00
2018-09-29T08:57:14.010Z,6272.00
2018-09-29T08:58:14.004Z,6564.00
2018-09-29T08:59:14.003Z,7828.00
2018-09-29T09:00:14.000Z,17952.00
2018-09-29T09:01:13.997Z,29312.00
2018-09-29T09:02:13.992Z,30944.00
2018-09-29T09:03:13.992Z,32128.00
2018-09-29T09:04:13.985Z,33184.00
2018-09-29T09:05:13.983Z,32768.00
2018-09-29T09:06:13.980Z,31904.00
2018-09-29T09:07:14.030Z,30272.00
2018-09-29T09:08:13.976Z,23584.00
2018-09-29T09:09:13.976Z,30720.00
2018-09-29T09:10:13.973Z,31488.00
2018-09-29T09:11:13.974Z,31488.00
2018-09-29T09:12:13.979Z,32608.00
2018-09-29T09:13:13.974Z,33600.00
2018-09-29T09:14:13.974Z,33792.00
2018-09-29T09:15:13.976Z,33536.00
2018-09-29T09:16:13.978Z,37760.00
2018-09-29T09:17:13.980Z,45216.00
2018-09-29T09:18:13.983Z,50944.00
2018-09-29T09:19:13.985Z,54944.00
2018-09-29T09:20:13.986Z,55104.00
2018-09-29T09:21:13.989Z,45312.00
2018-09-29T09:22:13.993Z,47232.00
2018-09-29T09:23:14.033Z,45664.00
2018-09-29T09:24:14.040Z,45888.00
2018-09-29T09:25:14.005Z,44064.00
2018-09-29T09:26:14.008Z,40448.00
2018-09-29T09:27:14.013Z,40000.00
2018-09-29T09:28:14.019Z,44576.00
2018-09-29T09:29:14.030Z,43840.00
2018-09-29T09:30:14.077Z,39200.00
2018-09-29T09:31:14.035Z,38240.00
2018-09-29T09:32:14.041Z,39040.00
2018-09-29T09:33:14.048Z,40064.00
2018-09-29T09:34:14.054Z,36352.00
2018-09-29T09:35:14.059Z,37184.00
2018-09-29T09:36:14.069Z,36384.00
2018-09-29T09:37:14.073Z,36768.00
2018-09-29T09:38:14.080Z,36640.00
2018-09-29T09:39:14.086Z,37248.00
2018-09-29T09:40:14.095Z,37728.00
2018-09-29T09:41:14.103Z,37536.00
2018-09-29T09:42:14.110Z,37088.00
2018-09-29T09:43:14.118Z,36480.00
2018-09-29T09:44:14.125Z,39648.00
2018-09-29T09:45:14.133Z,42496.00
2018-09-29T09:46:14.143Z,41664.00
2018-09-29T09:47:14.151Z,41664.00
2018-09-29T09:48:14.158Z,40032.00
2018-09-29T09:49:14.168Z,36864.00
2018-09-29T09:50:14.180Z,38176.00
2018-09-29T09:51:14.183Z,37952.00
2018-09-29T09:52:14.195Z,38368.00
2018-09-29T09:53:14.202Z,38848.00
2018-09-29T09:54:14.208Z,42080.00
2018-09-29T09:55:14.218Z,46304.00
2018-09-29T09:56:14.227Z,47040.00
2018-09-29T09:57:14.239Z,45312.00
2018-09-29T09:58:14.245Z,47168.00
2018-09-29T09:59:14.255Z,49536.00
2018-09-29T10:00:14.263Z,48832.00
2018-09-29T10:01:14.273Z,51104.00
2018-09-29T10:02:14.281Z,53152.00
2018-09-29T10:03:14.292Z,57952.00
2018-09-29T10:04:14.304Z,65088.00
2018-09-29T10:05:14.314Z,73312.00
2018-09-29T10:06:14.318Z,74368.00
2018-09-29T10:07:14.329Z,69888.00
2018-09-29T10:08:14.339Z,66240.00
2018-09-29T10:09:14.352Z,64512.00
2018-09-29T10:10:14.357Z,61376.00
2018-09-29T10:11:14.367Z,54688.00
2018-09-29T10:12:14.380Z,47264.00
2018-09-29T10:13:14.385Z,44032.00
2018-09-29T10:14:14.393Z,33600.00
2018-09-29T10:15:14.403Z,35424.00
2018-09-29T10:16:14.413Z,36320.00
2018-09-29T10:17:14.427Z,36928.00
2018-09-29T10:18:14.432Z,34080.00
2018-09-29T10:19:14.442Z,31264.00
2018-09-29T10:20:14.454Z,26304.00
2018-09-29T10:21:14.460Z,21536.00
2018-09-29T10:22:14.471Z,18208.00
2018-09-29T10:23:14.478Z,16108.00
2018-09-29T10:24:14.486Z,14788.00
2018-09-29T10:25:14.496Z,14696.00
2018-09-29T10:26:14.504Z,14164.00
2018-09-29T10:27:14.512Z,12984.00
2018-09-29T10:28:14.521Z,10976.00
2018-09-29T10:29:14.533Z,9100.00
2018-09-29T10:30:14.542Z,8676.00
2018-09-29T10:31:14.548Z,9080.00
2018-09-29T10:32:14.557Z,8784.00
2018-09-29T10:33:14.566Z,7068.00
2018-09-29T10:34:14.574Z,6408.00
2018-09-29T10:35:14.582Z,6300.00
2018-09-29T10:36:14.612Z,6252.00
2018-09-29T10:37:14.598Z,6324.00
2018-09-29T10:38:14.607Z,6436.00
2018-09-29T10:39:14.615Z,6308.00
2018-09-29T10:40:14.620Z,6060.00
2018-09-29T10:41:14.627Z,6372.00
2018-09-29T10:42:14.633Z,6440.00
2018-09-29T10:43:14.639Z,6148.00
2018-09-29T10:44:14.750Z,6060.00
2018-09-29T10:45:14.650Z,5924.00
2018-09-29T10:46:14.655Z,5908.00
2018-09-29T10:47:14.660Z,5976.00
2018-09-29T10:48:14.666Z,6036.00
2018-09-29T10:49:14.671Z,5828.00
2018-09-29T10:50:14.676Z,6252.00
2018-09-29T10:51:14.681Z,6556.00
2018-09-29T10:52:14.684Z,6428.00
2018-09-29T10:53:14.689Z,6136.00
2018-09-29T10:54:14.691Z,6164.00
2018-09-29T10:55:14.696Z,6104.00
2018-09-29T10:56:14.700Z,6108.00
2018-09-29T10:57:14.703Z,6104.00
2018-09-29T10:58:14.709Z,6116.00
2018-09-29T10:59:14.767Z,6220.00
2018-09-29T11:00:14.713Z,6116.00
2018-09-29T11:01:14.716Z,6008.00
2018-09-29T11:02:14.718Z,5920.00
2018-09-29T11:03:14.721Z,5860.00
2018-09-29T11:04:14.723Z,5904.00
2018-09-29T11:05:14.728Z,5864.00
2018-09-29T11:06:14.728Z,5724.00
2018-09-29T11:07:14.731Z,5660.00
2018-09-29T11:08:14.732Z,5616.00
2018-09-29T11:09:14.737Z,5600.00
2018-09-29T11:10:14.737Z,5516.00
2018-09-29T11:11:14.738Z,5552.00
2018-09-29T11:12:14.739Z,5588.00
2018-09-29T11:13:14.744Z,5576.00
2018-09-29T11:14:14.795Z,5552.00
2018-09-29T11:15:14.747Z,5524.00
2018-09-29T11:16:14.747Z,5500.00
2018-09-29T11:17:14.749Z,5516.00
2018-09-29T11:18:14.749Z,5492.00
2018-09-29T11:19:14.752Z,5324.00
2018-09-29T11:20:14.753Z,5312.00
2018-09-29T11:21:14.755Z,5136.00
2018-09-29T11:22:14.757Z,4984.00
2018-09-29T11:23:14.757Z,5156.00
2018-09-29T11:24:14.758Z,5232.00
2018-09-29T11:25:14.764Z,5116.00
2018-09-29T11:26:14.759Z,5044.00
2018-09-29T11:27:14.760Z,5100.00
2018-09-29T11:28:14.784Z,5148.00
2018-09-29T11:29:14.762Z,5180.00
2018-09-29T11:30:14.764Z,5168.00
2018-09-29T11:31:14.764Z,5148.00
2018-09-29T11:32:14.764Z,5124.00
2018-09-29T11:33:14.764Z,5148.00
2018-09-29T11:34:14.765Z,5156.00
2018-09-29T11:35:14.771Z,5120.00
2018-09-29T11:36:14.767Z,5204.00
2018-09-29T11:37:14.768Z,5172.00
2018-09-29T11:38:14.770Z,5088.00
2018-09-29T11:39:14.813Z,5084.00
2018-09-29T11:40:14.768Z,5172.00
2018-09-29T11:41:14.769Z,5112.00
2018-09-29T11:42:14.769Z,5036.00
2018-09-29T11:43:14.768Z,5040.00
2018-09-29T11:44:14.769Z,5028.00
2018-09-29T11:45:14.769Z,5040.00
2018-09-29T11:46:14.771Z,5004.00
2018-09-29T11:47:14.770Z,5060.00
2018-09-29T11:48:14.769Z,5180.00
2018-09-29T11:49:14.771Z,5320.00
2018-09-29T11:50:14.771Z,5336.00
2018-09-29T11:51:14.771Z,5300.00
2018-09-29T11:52:14.772Z,5188.00
2018-09-29T11:53:14.769Z,5112.00
2018-09-29T11:54:14.769Z,5044.00
2018-09-29T11:55:14.770Z,5008.00
2018-09-29T11:56:14.833Z,4824.00
2018-09-29T11:57:14.770Z,4764.00
2018-09-29T11:58:14.769Z,4868.00
2018-09-29T11:59:14.770Z,4860.00
2018-09-29T12:00:14.770Z,4860.00
2018-09-29T12:01:14.772Z,4852.00
2018-09-29T12:02:14.833Z,4956.00
2018-09-29T12:03:14.769Z,4972.00
2018-09-29T12:04:14.771Z,4820.00
2018-09-29T12:05:14.772Z,4848.00
2018-09-29T12:06:14.771Z,4792.00
2018-09-29T12:07:14.864Z,4764.00
2018-09-29T12:08:14.769Z,4796.00
2018-09-29T12:09:14.770Z,4856.00
2018-09-29T12:10:14.770Z,4876.00
2018-09-29T12:11:14.768Z,4956.00
2018-09-29T12:12:14.769Z,4876.00
2018-09-29T12:13:14.770Z,4788.00
2018-09-29T12:14:14.766Z,4800.00
2018-09-29T12:15:14.767Z,4804.00
2018-09-29T12:16:14.766Z,4732.00
2018-09-29T12:17:14.766Z,4624.00
2018-09-29T12:18:14.765Z,4528.00
2018-09-29T12:19:14.765Z,4416.00
2018-09-29T12:20:14.766Z,4400.00
2018-09-29T12:21:14.823Z,4340.00
2018-09-29T12:22:14.770Z,4332.00
2018-09-29T12:23:14.763Z,4272.00
2018-09-29T12:24:14.763Z,4240.00
2018-09-29T12:25:14.765Z,4144.00
2018-09-29T12:26:14.762Z,4016.00
2018-09-29T12:27:14.760Z,3980.00
2018-09-29T12:28:14.763Z,4228.00
2018-09-29T12:29:14.762Z,4196.00
2018-09-29T12:30:14.770Z,4168.00
2018-09-29T12:31:14.768Z,4200.00
2018-09-29T12:32:14.758Z,4116.00